createdAt,value
2019-05-07T00:01:06.864Z,16.50
2019-05-07T00:03:35.714Z,19.62
2019-05-07T00:06:04.354Z,17.90
2019-05-07T00:08:32.851Z,15.18
2019-05-07T00:11:02.515Z,18.10
2019-05-07T00:13:33.317Z,15.40
2019-05-07T00:16:02.488Z,20.17
2019-05-07T00:18:32.293Z,19.60
2019-05-07T00:21:03.372Z,19.20
2019-05-07T00:23:32.497Z,17.35
2019-05-07T00:26:02.518Z,18.55
2019-05-07T00:28:32.446Z,12.98
2019-05-07T00:31:02.935Z,15.83
2019-05-07T00:33:32.448Z,15.45
2019-05-07T00:36:02.782Z,16.70
2019-05-07T00:38:32.891Z,15.25
2019-05-07T00:41:03.249Z,15.25
2019-05-07T00:43:33.099Z,16.35
2019-05-07T00:46:03.293Z,16.40
2019-05-07T00:48:32.789Z,15.32
2019-05-07T00:51:19.369Z,14.65
2019-05-07T00:53:47.925Z,14.43
2019-05-07T00:56:16.469Z,14.20
2019-05-07T00:58:45.365Z,13.88
2019-05-07T01:01:13.887Z,17.42
2019-05-07T01:03:42.587Z,13.25
2019-05-07T01:06:12.893Z,13.78
2019-05-07T01:08:43.031Z,12.23
2019-05-07T01:11:13.168Z,16.32
2019-05-07T01:13:43.259Z,15.80
2019-05-07T01:16:12.982Z,14.98
2019-05-07T01:18:42.187Z,16.45
2019-05-07T01:21:13.093Z,15.83
2019-05-07T01:23:42.816Z,15.78
2019-05-07T01:26:12.437Z,17.98
2019-05-07T01:28:59.223Z,16.27
2019-05-07T01:31:34.539Z,15.35
2019-05-07T01:34:22.930Z,19.25
2019-05-07T01:36:52.348Z,19.23
2019-05-07T01:39:23.020Z,18.73
2019-05-07T01:41:52.419Z,17.55
2019-05-07T01:44:22.135Z,14.98
2019-05-07T01:46:52.886Z,15.68
2019-05-07T01:49:23.853Z,18.30
2019-05-07T01:51:52.992Z,17.27
2019-05-07T01:54:23.690Z,16.70
2019-05-07T01:56:52.252Z,18.37
2019-05-07T01:59:22.492Z,21.52
2019-05-07T02:01:52.998Z,19.05
2019-05-07T02:04:35.072Z,17.07
2019-05-07T02:07:13.751Z,18.30
2019-05-07T02:09:46.557Z,17.45
2019-05-07T02:12:19.490Z,21.45
2019-05-07T02:14:47.956Z,17.82
2019-05-07T02:17:16.425Z,20.45
2019-05-07T02:19:44.956Z,23.42
2019-05-07T02:22:13.541Z,22.10
2019-05-07T02:24:43.423Z,22.00
2019-05-07T02:27:12.699Z,19.57
2019-05-07T02:29:43.029Z,20.30
2019-05-07T02:32:13.327Z,18.67
2019-05-07T02:34:44.139Z,21.42
2019-05-07T02:37:13.641Z,20.48
2019-05-07T02:39:44.540Z,20.88
2019-05-07T02:42:13.236Z,22.48
2019-05-07T02:45:00.065Z,19.25
2019-05-07T02:47:33.100Z,20.17
2019-05-07T02:50:18.710Z,19.62
2019-05-07T02:52:55.006Z,21.17
2019-05-07T02:55:43.808Z,19.50
2019-05-07T02:58:13.769Z,19.32
2019-05-07T03:00:43.488Z,20.92
2019-05-07T03:03:13.879Z,21.52
2019-05-07T03:05:43.409Z,22.02
2019-05-07T03:08:13.415Z,20.37
2019-05-07T03:10:43.495Z,22.15
2019-05-07T03:13:15.872Z,22.80
2019-05-07T03:15:44.569Z,20.48
2019-05-07T03:18:13.946Z,23.90
2019-05-07T03:20:53.495Z,23.45
2019-05-07T03:23:23.187Z,24.15
2019-05-07T03:25:56.351Z,25.55
2019-05-07T03:28:26.153Z,26.90
2019-05-07T03:30:57.191Z,26.70
2019-05-07T03:33:27.703Z,25.25
2019-05-07T03:35:57.917Z,27.60
2019-05-07T03:38:26.704Z,25.50
2019-05-07T03:40:55.275Z,24.12
2019-05-07T03:43:27.372Z,27.67
2019-05-07T03:46:14.127Z,29.50
2019-05-07T03:48:44.299Z,24.63
2019-05-07T03:51:15.808Z,26.17
2019-05-07T03:53:44.643Z,27.17
2019-05-07T03:56:13.671Z,30.75
2019-05-07T03:58:43.336Z,28.75
2019-05-07T04:01:13.292Z,24.18
2019-05-07T04:03:44.651Z,30.25
2019-05-07T04:06:12.962Z,33.95
2019-05-07T04:08:43.334Z,28.00
2019-05-07T04:11:13.837Z,33.80
2019-05-07T04:13:44.157Z,35.05
2019-05-07T04:16:13.541Z,35.63
2019-05-07T04:18:43.917Z,37.25
2019-05-07T04:21:14.054Z,39.38
2019-05-07T04:23:43.808Z,32.75
2019-05-07T04:26:17.050Z,36.53
2019-05-07T04:28:53.658Z,38.98
2019-05-07T04:31:23.130Z,40.40
2019-05-07T04:33:53.355Z,38.38
2019-05-07T04:36:23.556Z,40.98
2019-05-07T04:38:53.212Z,41.45
2019-05-07T04:41:23.323Z,43.13
2019-05-07T04:43:56.320Z,44.70
2019-05-07T04:46:24.861Z,44.75
2019-05-07T04:48:53.849Z,42.25
2019-05-07T04:51:24.069Z,42.88
2019-05-07T04:53:54.209Z,49.05
2019-05-07T04:56:24.034Z,50.45
2019-05-07T04:58:53.217Z,45.33
2019-05-07T05:01:23.844Z,40.05
2019-05-07T05:03:53.960Z,37.60
2019-05-07T05:06:24.199Z,35.17
2019-05-07T05:08:56.049Z,39.23
2019-05-07T05:11:23.843Z,33.48
2019-05-07T05:13:53.313Z,34.78
2019-05-07T05:16:28.513Z,31.60
2019-05-07T05:18:57.182Z,38.80
2019-05-07T05:21:42.520Z,36.50
2019-05-07T05:24:15.627Z,31.87
2019-05-07T05:26:44.080Z,36.10
2019-05-07T05:29:12.670Z,32.58
2019-05-07T05:31:42.119Z,35.90
2019-05-07T05:34:13.080Z,36.80
2019-05-07T05:36:42.498Z,36.77
2019-05-07T05:39:13.176Z,34.03
2019-05-07T05:41:44.144Z,40.58
2019-05-07T05:44:14.663Z,35.00
2019-05-07T05:46:43.336Z,34.78
2019-05-07T05:49:12.239Z,33.18
2019-05-07T05:51:43.091Z,33.83
2019-05-07T05:54:19.091Z,35.92
2019-05-07T05:56:55.195Z,32.60
2019-05-07T05:59:47.848Z,30.25
2019-05-07T06:02:25.594Z,30.77
2019-05-07T06:04:55.838Z,29.52
2019-05-07T06:07:32.430Z,32.13
2019-05-07T06:10:08.641Z,33.75
2019-05-07T06:12:38.776Z,30.27
2019-05-07T06:15:09.568Z,31.60
2019-05-07T06:17:45.365Z,30.80
2019-05-07T06:20:16.830Z,30.35
2019-05-07T06:23:03.169Z,29.45
2019-05-07T06:25:33.443Z,30.05
2019-05-07T06:28:02.005Z,33.38
2019-05-07T06:30:30.613Z,31.15
2019-05-07T06:32:59.108Z,31.48
2019-05-07T06:35:27.595Z,28.98
2019-05-07T06:37:56.081Z,26.33
2019-05-07T06:40:32.272Z,29.05
2019-05-07T06:43:05.740Z,28.62
2019-05-07T06:45:42.365Z,27.95
2019-05-07T06:48:12.682Z,29.80
2019-05-07T06:50:43.270Z,29.70
2019-05-07T06:53:12.203Z,26.05
2019-05-07T06:55:42.690Z,26.40
2019-05-07T06:58:12.254Z,27.52
2019-05-07T07:00:42.647Z,26.85
2019-05-07T07:03:15.739Z,28.87
2019-05-07T07:05:45.895Z,23.38
2019-05-07T07:08:28.461Z,24.82
2019-05-07T07:11:07.680Z,25.37
2019-05-07T07:13:36.238Z,25.17
2019-05-07T07:16:04.835Z,25.45
2019-05-07T07:18:33.402Z,24.07
2019-05-07T07:21:02.701Z,26.07
2019-05-07T07:23:32.317Z,25.05
2019-05-07T07:26:03.123Z,24.30
2019-05-07T07:28:32.646Z,22.90
2019-05-07T07:31:19.562Z,22.07
2019-05-07T07:33:49.680Z,21.93
2019-05-07T07:36:19.107Z,21.85
2019-05-07T07:38:47.672Z,21.90
2019-05-07T07:41:32.508Z,23.02
2019-05-07T07:44:02.108Z,19.65
2019-05-07T07:46:32.819Z,19.77
2019-05-07T07:49:07.910Z,21.93
2019-05-07T07:51:40.659Z,18.67
2019-05-07T07:54:02.439Z,17.87
2019-05-07T07:56:47.835Z,16.40
2019-05-07T07:59:17.472Z,13.98
2019-05-07T08:01:47.628Z,17.12
2019-05-07T08:04:16.123Z,18.35
2019-05-07T08:06:45.933Z,13.10
2019-05-07T08:09:14.428Z,17.25
2019-05-07T08:11:42.960Z,11.40
2019-05-07T08:14:12.616Z,14.00
2019-05-07T08:16:42.897Z,13.65
2019-05-07T08:19:21.680Z,14.38
2019-05-07T08:21:42.522Z,11.68
2019-05-07T08:24:12.238Z,11.35
2019-05-07T08:26:42.816Z,11.35
2019-05-07T08:29:11.939Z,10.63
2019-05-07T08:31:48.226Z,11.10
2019-05-07T08:34:32.503Z,11.18
2019-05-07T08:37:01.844Z,12.73
2019-05-07T08:39:32.561Z,10.35
2019-05-07T08:42:02.060Z,10.50
2019-05-07T08:44:35.394Z,10.43
2019-05-07T08:47:05.593Z,10.80
2019-05-07T08:49:39.649Z,10.20
2019-05-07T08:52:05.239Z,10.45
2019-05-07T08:54:34.064Z,14.68
2019-05-07T08:57:02.828Z,10.78
2019-05-07T08:59:32.812Z,11.60
2019-05-07T09:02:02.944Z,13.38
2019-05-07T09:04:32.765Z,11.90
2019-05-07T09:07:02.627Z,11.38
2019-05-07T09:09:32.576Z,13.78
2019-05-07T09:12:03.306Z,10.78
2019-05-07T09:14:32.322Z,10.48
2019-05-07T09:17:02.612Z,10.40
2019-05-07T09:19:46.838Z,9.53
2019-05-07T09:22:03.484Z,10.72
2019-05-07T09:24:35.028Z,12.37
2019-05-07T09:27:17.104Z,10.23
2019-05-07T09:29:47.300Z,11.55
2019-05-07T09:32:32.853Z,10.50
2019-05-07T09:35:08.764Z,10.78
2019-05-07T09:37:37.410Z,9.00
2019-05-07T09:40:07.602Z,10.95
2019-05-07T09:42:36.082Z,10.65
2019-05-07T09:45:07.380Z,9.83
2019-05-07T09:47:35.926Z,9.75
2019-05-07T09:50:08.095Z,9.35
2019-05-07T09:52:36.250Z,8.95
2019-05-07T09:55:14.856Z,8.53
2019-05-07T09:57:37.374Z,8.35
2019-05-07T10:00:09.701Z,8.08
2019-05-07T10:02:38.324Z,8.85
2019-05-07T10:05:07.176Z,9.85
2019-05-07T10:07:35.877Z,8.25
2019-05-07T10:10:07.600Z,9.33
2019-05-07T10:12:42.073Z,11.12
2019-05-07T10:15:12.342Z,10.72
2019-05-07T10:17:45.449Z,9.70
2019-05-07T10:20:21.574Z,10.17
2019-05-07T10:22:46.778Z,13.25
2019-05-07T10:25:15.924Z,9.73
2019-05-07T10:27:44.532Z,8.23
2019-05-07T10:30:13.156Z,9.80
2019-05-07T10:32:42.397Z,7.20
2019-05-07T10:35:12.818Z,6.37
2019-05-07T10:37:42.267Z,6.83
2019-05-07T10:40:13.404Z,6.33
2019-05-07T10:42:43.028Z,7.97
2019-05-07T10:45:32.299Z,7.62
2019-05-07T10:48:02.700Z,6.35
2019-05-07T10:50:38.662Z,7.47
2019-05-07T10:53:03.272Z,7.12
2019-05-07T10:55:33.021Z,8.00
2019-05-07T10:58:02.978Z,8.73
2019-05-07T11:00:33.141Z,7.70
2019-05-07T11:03:02.465Z,8.40
2019-05-07T11:05:32.602Z,8.78
2019-05-07T11:08:02.250Z,10.10
2019-05-07T11:10:32.721Z,6.70
2019-05-07T11:13:02.405Z,9.43
2019-05-07T11:15:32.685Z,7.72
2019-05-07T11:18:21.817Z,8.68
2019-05-07T11:20:53.243Z,7.83
2019-05-07T11:23:22.235Z,8.88
2019-05-07T11:25:52.674Z,8.78
2019-05-07T11:28:22.735Z,7.15
2019-05-07T11:30:51.380Z,8.68
2019-05-07T11:33:21.874Z,8.20
2019-05-07T11:35:50.122Z,7.85
2019-05-07T11:38:24.085Z,9.85
2019-05-07T11:40:48.868Z,8.50
2019-05-07T11:43:19.125Z,8.35
2019-05-07T11:45:49.246Z,7.92
2019-05-07T11:48:18.973Z,7.58
2019-05-07T11:51:05.598Z,8.25
2019-05-07T11:53:35.710Z,8.50
2019-05-07T11:56:04.312Z,5.85
2019-05-07T11:58:32.795Z,9.28
2019-05-07T12:01:03.991Z,8.58
2019-05-07T12:03:32.751Z,9.30
2019-05-07T12:06:02.046Z,7.42
2019-05-07T12:08:39.408Z,8.20
2019-05-07T12:11:02.375Z,6.22
2019-05-07T12:13:32.315Z,9.65
2019-05-07T12:16:02.994Z,5.97
2019-05-07T12:18:32.058Z,7.70
2019-05-07T12:21:03.750Z,8.40
2019-05-07T12:23:33.252Z,8.33
2019-05-07T12:26:02.260Z,7.35
2019-05-07T12:28:32.763Z,8.48
2019-05-07T12:31:18.529Z,7.72
2019-05-07T12:33:48.735Z,8.25
2019-05-07T12:36:17.234Z,10.05
2019-05-07T12:38:45.779Z,8.55
2019-05-07T12:41:29.726Z,9.83
2019-05-07T12:44:02.343Z,8.00
2019-05-07T12:46:33.379Z,8.78
2019-05-07T12:49:03.108Z,10.28
2019-05-07T12:51:37.557Z,10.00
2019-05-07T12:54:08.970Z,10.23
2019-05-07T12:56:37.415Z,9.83
2019-05-07T12:59:06.044Z,10.88
2019-05-07T13:01:52.723Z,8.05
2019-05-07T13:04:25.590Z,8.35
2019-05-07T13:06:56.113Z,9.80
2019-05-07T13:09:25.007Z,7.97
2019-05-07T13:11:53.632Z,7.28
2019-05-07T13:14:22.190Z,8.55
2019-05-07T13:16:52.281Z,9.65
2019-05-07T13:19:22.634Z,8.18
2019-05-07T13:21:51.433Z,8.60
2019-05-07T13:24:19.891Z,9.50
2019-05-07T13:26:51.821Z,8.88
2019-05-07T13:29:22.205Z,11.50
2019-05-07T13:31:54.257Z,12.45
2019-05-07T13:34:22.945Z,9.70
2019-05-07T13:36:54.766Z,10.58
2019-05-07T13:39:34.010Z,12.13
2019-05-07T13:42:09.115Z,9.85
2019-05-07T13:44:42.371Z,9.75
2019-05-07T13:47:27.920Z,12.75
2019-05-07T13:49:57.075Z,10.82
2019-05-07T13:52:26.254Z,9.75
2019-05-07T13:54:55.547Z,10.05
2019-05-07T13:57:24.162Z,13.55
2019-05-07T13:59:53.338Z,9.20
2019-05-07T14:02:23.614Z,10.15
2019-05-07T14:04:52.738Z,10.90
2019-05-07T14:07:22.292Z,13.32
2019-05-07T14:09:52.730Z,11.83
2019-05-07T14:12:22.885Z,10.48
2019-05-07T14:14:53.041Z,10.08
2019-05-07T14:17:22.412Z,11.60
2019-05-07T14:19:53.009Z,10.18
2019-05-07T14:22:22.551Z,12.30
2019-05-07T14:24:53.118Z,12.85
2019-05-07T14:27:22.002Z,11.35
2019-05-07T14:29:51.986Z,14.98
2019-05-07T14:32:27.068Z,9.78
2019-05-07T14:35:03.839Z,10.98
2019-05-07T14:37:37.093Z,11.22
2019-05-07T14:40:09.218Z,11.95
2019-05-07T14:42:45.171Z,12.82
2019-05-07T14:45:14.391Z,13.65
2019-05-07T14:47:44.785Z,12.58
2019-05-07T14:50:14.665Z,12.20
2019-05-07T14:52:43.421Z,12.75
2019-05-07T14:55:12.853Z,10.95
2019-05-07T14:57:42.059Z,12.78
2019-05-07T15:00:12.246Z,12.98
2019-05-07T15:02:42.223Z,15.95
2019-05-07T15:05:12.063Z,13.45
2019-05-07T15:07:41.932Z,13.13
2019-05-07T15:10:11.297Z,13.43
2019-05-07T15:12:39.993Z,12.75
2019-05-07T15:15:09.238Z,14.20
2019-05-07T15:17:42.550Z,14.73
2019-05-07T15:20:11.565Z,15.13
2019-05-07T15:22:49.127Z,10.00
2019-05-07T15:25:14.476Z,12.68
2019-05-07T15:27:44.751Z,12.18
2019-05-07T15:30:14.001Z,13.30
2019-05-07T15:32:42.868Z,16.25
2019-05-07T15:35:12.728Z,15.53
2019-05-07T15:37:42.715Z,12.28
2019-05-07T15:40:11.726Z,13.20
2019-05-07T15:42:42.147Z,15.18
2019-05-07T15:45:12.495Z,12.60
2019-05-07T15:47:43.363Z,15.32
2019-05-07T15:50:12.479Z,14.47
2019-05-07T15:52:57.615Z,14.28
2019-05-07T15:55:16.378Z,11.00
2019-05-07T15:57:44.938Z,12.75
2019-05-07T16:00:25.871Z,13.20
2019-05-07T16:03:08.111Z,12.28
2019-05-07T16:05:36.710Z,12.05
2019-05-07T16:08:07.056Z,13.72
2019-05-07T16:10:35.601Z,16.95
2019-05-07T16:13:04.805Z,16.77
2019-05-07T16:15:33.796Z,14.45
2019-05-07T16:18:09.930Z,12.43
2019-05-07T16:20:38.453Z,12.90
2019-05-07T16:23:14.718Z,14.10
2019-05-07T16:25:37.135Z,14.58
2019-05-07T16:28:05.966Z,15.23
2019-05-07T16:30:36.860Z,15.80
2019-05-07T16:33:04.709Z,14.35
2019-05-07T16:35:33.262Z,14.43
2019-05-07T16:38:01.792Z,12.15
2019-05-07T16:40:32.217Z,12.65
2019-05-07T16:43:02.600Z,13.50
2019-05-07T16:45:30.727Z,15.23
2019-05-07T16:48:01.090Z,12.55
2019-05-07T16:50:29.396Z,15.72
2019-05-07T16:52:58.234Z,15.05
2019-05-07T16:55:28.348Z,14.75
2019-05-07T16:58:01.921Z,15.68
2019-05-07T17:00:38.045Z,17.55
2019-05-07T17:03:08.220Z,16.07
2019-05-07T17:05:38.291Z,16.50
2019-05-07T17:08:08.381Z,15.65
2019-05-07T17:10:36.885Z,17.95
2019-05-07T17:13:05.424Z,15.13
2019-05-07T17:15:35.542Z,15.88
2019-05-07T17:18:04.095Z,17.37
2019-05-07T17:20:33.071Z,17.00
2019-05-07T17:23:02.978Z,19.12
2019-05-07T17:25:37.539Z,20.45
2019-05-07T17:28:12.481Z,14.98
2019-05-07T17:30:42.106Z,17.70
2019-05-07T17:33:12.832Z,16.93
2019-05-07T17:35:42.321Z,16.73
2019-05-07T17:38:12.852Z,16.10
2019-05-07T17:40:42.360Z,16.35
2019-05-07T17:43:12.306Z,17.07
2019-05-07T17:45:42.919Z,16.80
2019-05-07T17:48:12.276Z,16.97
2019-05-07T17:50:43.065Z,21.50
2019-05-07T17:53:11.976Z,15.38
2019-05-07T17:55:42.281Z,20.68
2019-05-07T17:58:12.874Z,21.05
2019-05-07T18:00:43.280Z,15.93
2019-05-07T18:03:22.458Z,16.70
2019-05-07T18:05:51.915Z,18.12
2019-05-07T18:08:21.755Z,15.35
2019-05-07T18:10:50.310Z,18.57
2019-05-07T18:13:18.788Z,16.65
2019-05-07T18:15:47.408Z,16.48
2019-05-07T18:18:15.943Z,14.63
2019-05-07T18:20:44.495Z,14.28
2019-05-07T18:23:16.928Z,17.27
2019-05-07T18:25:43.538Z,17.45
2019-05-07T18:28:12.858Z,17.80
2019-05-07T18:30:41.367Z,18.77
2019-05-07T18:33:14.207Z,18.05
2019-05-07T18:35:45.378Z,16.32
2019-05-07T18:38:14.137Z,15.55
2019-05-07T18:40:42.596Z,18.45
2019-05-07T18:43:12.282Z,16.93
2019-05-07T18:45:41.101Z,14.18
2019-05-07T18:48:11.721Z,17.50
2019-05-07T18:50:41.827Z,17.60
2019-05-07T18:53:11.999Z,17.02
2019-05-07T18:55:42.200Z,16.45
2019-05-07T18:58:10.509Z,17.50
2019-05-07T19:00:43.777Z,18.80
2019-05-07T19:03:12.360Z,18.42
2019-05-07T19:05:42.424Z,17.02
2019-05-07T19:08:12.604Z,15.10
2019-05-07T19:10:42.910Z,17.70
2019-05-07T19:13:11.764Z,15.28
2019-05-07T19:15:42.022Z,20.02
2019-05-07T19:18:12.026Z,18.60
2019-05-07T19:20:42.203Z,16.73
2019-05-07T19:23:10.831Z,18.23
2019-05-07T19:25:39.285Z,19.40
2019-05-07T19:28:07.769Z,17.75
2019-05-07T19:30:36.234Z,14.70
2019-05-07T19:33:04.760Z,15.10
2019-05-07T19:35:33.324Z,17.42
2019-05-07T19:38:02.842Z,19.07
2019-05-07T19:40:32.505Z,16.87
2019-05-07T19:43:03.002Z,16.45
2019-05-07T19:45:31.621Z,20.62
2019-05-07T19:48:00.170Z,14.18
2019-05-07T19:50:28.652Z,14.75
2019-05-07T19:52:57.101Z,16.70
2019-05-07T19:55:25.641Z,18.92
2019-05-07T19:57:55.766Z,22.22
2019-05-07T20:00:26.151Z,38.17
2019-05-07T20:02:58.950Z,20.68
2019-05-07T20:05:27.497Z,18.55
2019-05-07T20:07:59.554Z,20.77
2019-05-07T20:10:27.878Z,18.32
2019-05-07T20:12:56.367Z,17.57
2019-05-07T20:15:25.165Z,16.55
2019-05-07T20:17:53.648Z,16.48
2019-05-07T20:20:22.452Z,16.23
2019-05-07T20:22:51.849Z,16.60
2019-05-07T20:25:22.547Z,18.23
2019-05-07T20:27:52.695Z,15.43
2019-05-07T20:30:22.865Z,16.90
2019-05-07T20:32:52.291Z,18.07
2019-05-07T20:35:21.064Z,16.80
2019-05-07T20:37:49.612Z,18.73
2019-05-07T20:40:18.102Z,15.40
2019-05-07T20:42:46.583Z,15.18
2019-05-07T20:45:15.469Z,17.05
2019-05-07T20:47:43.988Z,15.00
2019-05-07T20:50:12.859Z,14.58
2019-05-07T20:52:42.183Z,18.10
2019-05-07T20:55:27.986Z,17.07
2019-05-07T20:57:47.237Z,17.00
2019-05-07T21:00:27.612Z,16.52
2019-05-07T21:03:14.296Z,17.90
2019-05-07T21:05:42.922Z,20.23
2019-05-07T21:08:11.996Z,20.17
2019-05-07T21:10:42.626Z,19.60
2019-05-07T21:13:26.988Z,18.50
2019-05-07T21:15:42.026Z,16.95
2019-05-07T21:18:14.212Z,21.00
2019-05-07T21:20:42.796Z,19.32
2019-05-07T21:23:12.207Z,18.98
2019-05-07T21:25:43.494Z,21.68
2019-05-07T21:28:12.196Z,17.67
2019-05-07T21:30:42.705Z,17.23
2019-05-07T21:33:11.974Z,17.67
2019-05-07T21:35:42.745Z,19.25
2019-05-07T21:38:12.779Z,22.50
2019-05-07T21:40:42.867Z,18.57
2019-05-07T21:43:12.045Z,21.90
2019-05-07T21:45:42.347Z,20.10
2019-05-07T21:48:13.546Z,19.52
2019-05-07T21:50:41.649Z,20.43
2019-05-07T21:53:12.099Z,22.82
2019-05-07T21:56:01.682Z,23.98
2019-05-07T21:58:26.329Z,23.35
2019-05-07T22:01:02.030Z,21.90
2019-05-07T22:03:34.695Z,23.02
2019-05-07T22:06:02.607Z,20.77
2019-05-07T22:08:32.564Z,21.40
2019-05-07T22:11:04.703Z,24.67
2019-05-07T22:13:33.534Z,21.68
2019-05-07T22:16:02.726Z,20.90
2019-05-07T22:18:32.013Z,18.55
2019-05-07T22:21:02.926Z,18.02
2019-05-07T22:23:32.463Z,19.07
2019-05-07T22:26:18.369Z,22.00
2019-05-07T22:28:32.997Z,18.00
2019-05-07T22:31:03.186Z,22.35
2019-05-07T22:33:49.507Z,21.70
2019-05-07T22:36:18.128Z,26.33
2019-05-07T22:38:46.648Z,23.92
2019-05-07T22:41:15.131Z,20.92
2019-05-07T22:43:43.696Z,20.27
2019-05-07T22:46:14.124Z,20.20
2019-05-07T22:48:42.679Z,23.70
2019-05-07T22:51:12.303Z,20.25
2019-05-07T22:53:41.005Z,20.57
2019-05-07T22:56:09.565Z,19.77
2019-05-07T22:58:41.848Z,18.12
2019-05-07T23:01:13.078Z,21.30
2019-05-07T23:03:43.020Z,20.15
2019-05-07T23:06:12.387Z,19.85
2019-05-07T23:08:42.473Z,19.37
2019-05-07T23:11:12.219Z,19.48
2019-05-07T23:13:42.765Z,19.98
2019-05-07T23:16:12.595Z,18.55
2019-05-07T23:18:42.867Z,19.42
2019-05-07T23:21:11.541Z,18.42
2019-05-07T23:23:42.247Z,18.15
2019-05-07T23:26:14.261Z,19.85
2019-05-07T23:28:41.845Z,17.90
2019-05-07T23:31:12.147Z,19.07
2019-05-07T23:33:40.778Z,21.10
2019-05-07T23:36:12.918Z,19.80
2019-05-07T23:38:42.636Z,22.35
2019-05-07T23:41:13.303Z,17.52
2019-05-07T23:43:42.404Z,19.95
2019-05-07T23:46:12.848Z,20.25
2019-05-07T23:48:42.705Z,21.17
2019-05-07T23:51:12.639Z,19.70
2019-05-07T23:53:44.204Z,18.57
2019-05-07T23:56:13.131Z,18.10
2019-05-07T23:58:42.014Z,18.07
